Time;durP1;ratioP1;P1;durP2;ratioP2;P2;SDS_P1;SDS_P2;PMS_P1;PMS_P2;Temp;Humidity;BMP_temperature;BMP_pressure;BME280_temperature;BME280_humidity;BME280_pressure;Samples;Min_cycle;Max_cycle;Signal;HPM_P1;HPM_P2
2022/07/14 00:00:09;;;;;;;14.80;4.93;;;19.60;59.30;;;;;;5054048;28;20401;-76
2022/07/14 00:02:34;;;;;;;20.10;5.40;;;19.60;58.70;;;;;;5047720;28;20523;-77
2022/07/14 00:05:00;;;;;;;14.52;5.10;;;19.60;59.70;;;;;;5050118;28;20431;-77
2022/07/14 00:07:25;;;;;;;16.35;4.95;;;19.50;59.50;;;;;;5049722;28;20405;-76
2022/07/14 00:09:51;;;;;;;15.10;5.70;;;19.40;59.10;;;;;;5058238;28;20401;-76
2022/07/14 00:12:17;;;;;;;16.77;4.57;;;19.40;59.20;;;;;;5057588;28;20441;-76
2022/07/14 00:14:43;;;;;;;12.82;5.75;;;19.30;58.70;;;;;;5056478;28;20412;-77
2022/07/14 00:17:08;;;;;;;17.93;5.33;;;19.30;59.60;;;;;;5035623;28;20433;-77
2022/07/14 00:19:34;;;;;;;19.95;5.15;;;19.30;59.40;;;;;;5033402;28;20395;-77
2022/07/14 00:21:59;;;;;;;12.73;5.00;;;19.10;60.10;;;;;;5054497;28;20393;-77
2022/07/14 00:24:25;;;;;;;15.63;4.90;;;19.10;60.80;;;;;;5043131;28;20395;-77
2022/07/14 00:26:50;;;;;;;23.20;5.78;;;19.00;61.20;;;;;;5041398;28;20390;-77
2022/07/14 00:29:16;;;;;;;14.88;5.20;;;19.00;61.70;;;;;;5045884;28;20427;-77
2022/07/14 00:31:42;;;;;;;11.90;4.68;;;19.00;61.50;;;;;;5045863;28;20891;-77
2022/07/14 00:34:07;;;;;;;20.50;5.60;;;19.10;59.90;;;;;;5037417;28;20412;-77
2022/07/14 00:36:33;;;;;;;17.93;5.13;;;19.10;59.60;;;;;;5044188;28;20425;-76
2022/07/14 00:38:58;;;;;;;17.27;5.57;;;19.20;58.90;;;;;;5047985;28;20725;-77
2022/07/14 00:41:24;;;;;;;14.30;4.63;;;19.20;58.80;;;;;;5032603;28;20391;-76
2022/07/14 00:43:50;;;;;;;10.50;4.80;;;19.20;58.80;;;;;;5035292;28;20383;-75
2022/07/14 00:46:15;;;;;;;19.75;5.18;;;19.20;58.60;;;;;;5031357;28;20476;-76
2022/07/14 00:48:41;;;;;;;15.90;4.85;;;19.10;58.90;;;;;;5036428;28;20378;-76
2022/07/14 00:51:07;;;;;;;16.83;5.03;;;19.00;60.30;;;;;;5049661;28;20393;-77
2022/07/14 00:53:32;;;;;;;24.17;5.47;;;19.00;60.40;;;;;;5048218;28;20397;-76
2022/07/14 00:55:58;;;;;;;19.08;5.00;;;18.90;61.10;;;;;;5039428;28;20497;-76
2022/07/14 00:58:24;;;;;;;17.25;5.00;;;18.90;61.80;;;;;;5046508;28;20407;-76
2022/07/14 01:00:50;;;;;;;17.15;5.47;;;18.80;62.40;;;;;;5034091;28;20876;-76
2022/07/14 01:03:15;;;;;;;17.35;5.28;;;18.90;60.20;;;;;;5040291;28;20394;-76
2022/07/14 01:05:41;;;;;;;18.67;5.10;;;18.90;59.60;;;;;;5043155;28;20422;-77
2022/07/14 01:08:07;;;;;;;14.32;5.18;;;18.80;60.70;;;;;;5042459;28;20862;-76
2022/07/14 01:10:33;;;;;;;24.17;5.60;;;18.70;61.60;;;;;;5044104;28;20408;-76
2022/07/14 01:13:00;;;;;;;20.33;5.28;;;18.70;62.10;;;;;;5048914;28;20398;-76
2022/07/14 01:15:27;;;;;;;20.92;5.88;;;18.70;62.10;;;;;;5042113;28;20441;-77
2022/07/14 01:17:52;;;;;;;16.08;5.00;;;18.60;63.50;;;;;;5039914;28;20398;-76
2022/07/14 01:20:19;;;;;;;18.13;5.20;;;18.60;63.30;;;;;;5042363;28;20393;-76
2022/07/14 01:22:46;;;;;;;17.10;5.45;;;18.70;62.60;;;;;;5050853;28;20381;-77
2022/07/14 01:25:13;;;;;;;14.93;4.82;;;18.60;62.70;;;;;;5051816;28;20438;-77
2022/07/14 01:27:39;;;;;;;21.73;5.57;;;18.70;62.70;;;;;;5048026;28;20401;-77
2022/07/14 01:30:06;;;;;;;17.42;5.45;;;18.60;62.30;;;;;;5043774;28;20906;-77
2022/07/14 01:32:31;;;;;;;15.85;4.97;;;18.60;62.90;;;;;;5031926;28;20403;-77
2022/07/14 01:34:57;;;;;;;21.48;5.45;;;18.50;64.30;;;;;;5031366;28;20403;-77
2022/07/14 01:37:22;;;;;;;19.03;5.20;;;18.50;64.40;;;;;;5043365;28;20391;-77
2022/07/14 01:39:48;;;;;;;21.37;5.73;;;18.50;64.30;;;;;;5045567;28;20379;-76
2022/07/14 01:42:14;;;;;;;15.60;5.25;;;18.50;63.70;;;;;;5061068;22;20828;-75
2022/07/14 01:44:39;;;;;;;14.45;5.03;;;18.60;63.20;;;;;;5026114;28;20419;-75
2022/07/14 01:47:05;;;;;;;23.15;5.65;;;18.60;63.90;;;;;;5000625;28;20904;-74
2022/07/14 01:49:31;;;;;;;16.90;6.40;;;18.50;64.30;;;;;;5016676;28;20405;-74
2022/07/14 01:51:57;;;;;;;19.40;4.90;;;18.40;65.00;;;;;;5023999;28;20433;-75
2022/07/14 01:54:24;;;;;;;17.83;5.93;;;18.40;65.70;;;;;;5026053;28;20808;-75
2022/07/14 01:56:50;;;;;;;15.65;5.20;;;18.40;66.50;;;;;;5032527;28;20474;-75
2022/07/14 01:59:16;;;;;;;18.65;5.35;;;18.30;67.40;;;;;;5017135;28;20445;-76
2022/07/14 02:01:42;;;;;;;14.50;4.50;;;18.30;67.20;;;;;;5032362;28;20395;-76
2022/07/14 02:04:15;;;;;;;15.68;5.60;;;18.30;67.40;;;;;;5015240;28;20459;-76
2022/07/14 02:06:43;;;;;;;18.40;5.15;;;18.20;67.40;;;;;;4992365;28;20394;-75
2022/07/14 02:09:09;;;;;;;17.88;4.72;;;18.20;68.00;;;;;;5034783;28;20395;-75
2022/07/14 02:14:20;;;;;;;23.08;5.50;;;18.20;67.70;;;;;;5022589;28;20419;-75
2022/07/14 02:16:45;;;;;;;19.35;5.82;;;18.20;68.30;;;;;;5034177;28;20383;-75
2022/07/14 02:19:11;;;;;;;21.88;5.75;;;18.10;68.90;;;;;;5023397;28;20882;-76
2022/07/14 02:21:39;;;;;;;22.83;5.90;;;18.20;68.40;;;;;;5034317;28;20430;-75
2022/07/14 02:24:06;;;;;;;21.25;5.55;;;18.10;69.00;;;;;;5005823;28;20748;-75
2022/07/14 02:26:31;;;;;;;19.38;5.63;;;18.10;70.10;;;;;;5035450;28;20395;-74
2022/07/14 02:28:57;;;;;;;24.43;6.60;;;18.30;67.20;;;;;;5025127;28;20388;-75
2022/07/14 02:31:23;;;;;;;17.57;5.40;;;18.30;66.90;;;;;;5011449;28;20400;-74
2022/07/14 02:33:48;;;;;;;22.13;6.43;;;18.20;66.90;;;;;;5029771;28;20473;-75
2022/07/14 02:36:14;;;;;;;20.30;5.88;;;18.20;67.80;;;;;;5034711;28;20403;-75
2022/07/14 02:38:39;;;;;;;24.30;6.20;;;18.20;66.90;;;;;;5017336;28;20401;-74
2022/07/14 02:41:05;;;;;;;23.57;6.67;;;18.30;66.70;;;;;;5011501;28;20496;-76
2022/07/14 02:43:35;;;;;;;16.30;5.60;;;18.20;67.20;;;;;;5004587;28;20408;-75
2022/07/14 02:46:01;;;;;;;17.60;6.07;;;18.20;68.00;;;;;;5006839;28;20428;-75
2022/07/14 02:48:27;;;;;;;27.50;6.40;;;18.10;68.00;;;;;;5029709;28;20395;-76
2022/07/14 02:51:04;;;;;;;22.83;5.18;;;18.10;68.60;;;;;;5012181;28;20497;-74
2022/07/14 02:53:30;;;;;;;18.88;6.10;;;18.10;68.50;;;;;;5018632;28;20789;-75
2022/07/14 02:55:56;;;;;;;19.42;5.53;;;18.10;68.90;;;;;;5017303;28;20427;-75
2022/07/14 02:58:24;;;;;;;19.38;5.93;;;18.10;69.00;;;;;;5029944;28;20428;-76
2022/07/14 03:00:51;;;;;;;14.20;5.57;;;18.10;68.30;;;;;;5014598;28;20389;-75
2022/07/14 03:03:16;;;;;;;14.70;5.00;;;18.10;68.50;;;;;;5014977;28;20805;-74
2022/07/14 03:05:42;;;;;;;23.17;6.87;;;18.00;69.50;;;;;;5014344;28;20384;-76
2022/07/14 03:08:09;;;;;;;20.35;6.03;;;17.90;70.70;;;;;;5014617;28;20385;-76
2022/07/14 03:10:34;;;;;;;20.60;6.55;;;17.90;71.50;;;;;;5026554;28;20424;-76
2022/07/14 03:13:00;;;;;;;18.15;6.00;;;17.90;71.80;;;;;;5013248;28;20831;-76
2022/07/14 03:15:26;;;;;;;18.95;5.95;;;17.90;71.10;;;;;;5022299;28;20436;-76
2022/07/14 03:17:51;;;;;;;26.30;6.30;;;17.80;71.80;;;;;;4998010;28;20393;-76
2022/07/14 03:20:17;;;;;;;18.87;5.60;;;17.80;72.60;;;;;;5029298;28;20424;-75
2022/07/14 03:22:42;;;;;;;20.35;6.15;;;17.90;72.10;;;;;;5016801;28;20407;-76
2022/07/14 03:25:09;;;;;;;26.40;6.20;;;17.90;72.50;;;;;;5013176;28;20389;-77
2022/07/14 03:27:35;;;;;;;16.10;5.50;;;17.90;72.00;;;;;;5022668;28;20858;-76
2022/07/14 03:30:04;;;;;;;20.30;5.73;;;18.00;69.70;;;;;;5032700;28;20759;-75
2022/07/14 03:32:29;;;;;;;20.45;5.50;;;18.00;68.30;;;;;;5014386;28;20407;-75
2022/07/14 03:34:55;;;;;;;20.70;5.60;;;17.90;69.10;;;;;;5032962;28;20414;-75
2022/07/14 03:37:20;;;;;;;23.13;5.57;;;17.90;70.40;;;;;;5032788;28;20474;-74
2022/07/14 03:39:46;;;;;;;19.77;6.13;;;17.80;71.50;;;;;;5024878;28;20399;-76
2022/07/14 03:42:11;;;;;;;21.02;6.25;;;17.70;72.10;;;;;;5007459;28;20401;-76
2022/07/14 03:44:37;;;;;;;21.23;6.47;;;17.60;73.40;;;;;;5007788;28;20472;-76
2022/07/14 03:47:03;;;;;;;28.23;6.50;;;17.70;73.50;;;;;;5013112;28;20395;-76
2022/07/14 03:49:28;;;;;;;29.77;8.15;;;17.70;72.20;;;;;;5027823;28;20755;-76
2022/07/14 03:51:54;;;;;;;23.58;7.22;;;17.70;72.20;;;;;;5013939;28;20393;-76
2022/07/14 03:54:19;;;;;;;23.57;6.80;;;17.70;72.00;;;;;;5017000;28;20443;-77
2022/07/14 03:56:45;;;;;;;19.33;5.90;;;17.50;73.40;;;;;;5033182;28;20433;-77
2022/07/14 03:59:10;;;;;;;21.30;6.18;;;17.50;73.60;;;;;;5017547;28;20737;-77
2022/07/14 04:01:37;;;;;;;25.73;6.50;;;17.60;73.50;;;;;;5003459;28;21029;-76
2022/07/14 04:04:04;;;;;;;23.88;6.10;;;17.60;73.10;;;;;;5025869;28;20416;-78
2022/07/14 04:06:30;;;;;;;20.80;6.15;;;17.60;72.70;;;;;;5012415;28;20467;-77
2022/07/14 04:08:57;;;;;;;17.88;5.68;;;17.70;73.10;;;;;;5020349;28;20893;-77
2022/07/14 04:11:22;;;;;;;18.00;6.00;;;17.80;71.80;;;;;;5022151;28;20414;-78
2022/07/14 04:13:48;;;;;;;19.93;6.40;;;17.80;71.40;;;;;;5013227;28;20434;-78
2022/07/14 04:16:13;;;;;;;19.03;6.00;;;17.80;71.30;;;;;;5023777;28;20445;-77
2022/07/14 04:18:39;;;;;;;30.75;6.50;;;17.70;71.50;;;;;;5003109;28;20799;-78
2022/07/14 04:21:10;;;;;;;16.83;6.20;;;17.70;72.10;;;;;;5033859;28;20454;-77
2022/07/14 04:23:36;;;;;;;21.38;6.72;;;17.70;71.50;;;;;;5024266;28;20392;-75
2022/07/14 04:26:03;;;;;;;20.90;6.18;;;17.70;71.50;;;;;;5019510;28;20391;-77
2022/07/14 04:28:29;;;;;;;25.90;7.40;;;17.80;70.80;;;;;;5012972;28;20401;-78
2022/07/14 04:30:55;;;;;;;20.53;6.13;;;17.80;71.60;;;;;;5006305;28;20417;-79
2022/07/14 04:33:21;;;;;;;29.00;6.40;;;17.90;70.20;;;;;;5023751;28;20407;-78
2022/07/14 04:35:48;;;;;;;20.25;6.00;;;17.90;69.40;;;;;;4999414;28;20861;-78
2022/07/14 04:38:14;;;;;;;26.42;6.88;;;18.00;68.30;;;;;;4994791;28;20393;-78
2022/07/14 04:40:46;;;;;;;20.98;6.43;;;18.10;68.10;;;;;;5012570;28;20399;-77
2022/07/14 04:43:12;;;;;;;16.03;6.80;;;18.10;66.80;;;;;;5032644;28;20561;-76
2022/07/14 04:45:37;;;;;;;20.00;6.30;;;18.10;66.20;;;;;;5024593;28;20917;-77
2022/07/14 04:48:03;;;;;;;24.58;7.47;;;18.10;65.90;;;;;;5012849;28;20583;-76
2022/07/14 04:53:13;;;;;;;22.77;6.63;;;18.10;66.40;;;;;;5014369;28;20465;-75
2022/07/14 04:55:39;;;;;;;23.75;6.53;;;18.00;66.90;;;;;;5014259;28;20412;-76
2022/07/14 04:58:05;;;;;;;18.60;5.87;;;17.90;67.40;;;;;;5014105;28;20396;-77
2022/07/14 05:00:30;;;;;;;19.47;6.00;;;17.80;68.00;;;;;;5018317;28;20389;-76
2022/07/14 05:02:56;;;;;;;24.20;6.80;;;17.80;69.00;;;;;;4993996;28;20397;-77
2022/07/14 05:05:22;;;;;;;17.75;6.85;;;17.60;70.40;;;;;;5011674;28;20408;-76
2022/07/14 05:07:47;;;;;;;18.48;6.38;;;17.60;71.80;;;;;;5011898;28;20397;-77
2022/07/14 05:10:13;;;;;;;24.90;6.10;;;17.60;71.90;;;;;;5011472;28;20389;-77
2022/07/14 05:12:38;;;;;;;27.37;6.97;;;17.60;71.30;;;;;;5011354;28;20403;-76
2022/07/14 05:15:04;;;;;;;18.08;5.88;;;17.60;72.10;;;;;;5018193;28;20452;-77
2022/07/14 05:17:30;;;;;;;13.82;5.53;;;17.60;71.30;;;;;;5025459;28;20470;-77
2022/07/14 05:19:55;;;;;;;19.27;6.28;;;17.50;72.20;;;;;;5021087;28;20462;-77
2022/07/14 05:22:21;;;;;;;25.40;7.20;;;17.50;71.50;;;;;;5027925;28;20737;-77
2022/07/14 05:24:47;;;;;;;22.60;6.50;;;17.60;71.50;;;;;;5030801;28;20386;-77
2022/07/14 05:27:12;;;;;;;29.02;8.02;;;17.60;70.50;;;;;;5030678;28;20386;-77
2022/07/14 05:29:38;;;;;;;26.10;7.32;;;17.60;71.50;;;;;;5023447;28;20765;-76
2022/07/14 05:32:04;;;;;;;24.42;7.13;;;17.80;70.50;;;;;;5010853;28;20384;-76
2022/07/14 05:34:30;;;;;;;23.92;8.07;;;17.70;68.40;;;;;;5010822;28;20401;-76
2022/07/14 05:36:56;;;;;;;23.63;6.90;;;17.60;70.00;;;;;;5011069;28;20387;-76
2022/07/14 05:39:22;;;;;;;27.67;6.93;;;17.70;70.00;;;;;;5011827;28;20467;-75
2022/07/14 05:41:47;;;;;;;25.70;8.00;;;17.70;68.50;;;;;;5010956;28;20388;-77
2022/07/14 05:44:13;;;;;;;19.13;7.60;;;17.70;68.90;;;;;;5019123;28;20391;-77
2022/07/14 05:46:38;;;;;;;21.83;6.90;;;17.90;66.50;;;;;;5030459;28;20406;-76
2022/07/14 05:49:04;;;;;;;20.27;6.40;;;18.20;63.90;;;;;;5030771;28;20775;-76
2022/07/14 05:51:29;;;;;;;30.50;7.63;;;18.40;60.80;;;;;;5030478;28;20379;-76
2022/07/14 05:53:55;;;;;;;23.02;6.80;;;18.60;58.90;;;;;;5030501;28;20804;-77
2022/07/14 05:56:21;;;;;;;19.83;6.00;;;18.90;57.00;;;;;;5030927;28;20402;-76
2022/07/14 05:58:47;;;;;;;31.17;7.03;;;19.10;53.90;;;;;;5023966;28;20393;-77
2022/07/14 06:01:16;;;;;;;21.30;6.40;;;19.10;51.80;;;;;;5010897;28;20408;-76
2022/07/14 06:03:42;;;;;;;29.08;6.43;;;19.00;52.90;;;;;;5028145;28;20391;-76
2022/07/14 06:06:08;;;;;;;24.05;5.50;;;18.90;53.20;;;;;;5028689;28;20474;-78
2022/07/14 06:08:34;;;;;;;19.00;6.50;;;18.70;53.80;;;;;;5030519;28;20423;-77
2022/07/14 06:11:00;;;;;;;22.35;6.28;;;18.70;54.80;;;;;;5018265;28;20408;-76
2022/07/14 06:13:27;;;;;;;20.30;6.40;;;18.80;54.20;;;;;;5011063;28;20385;-76
2022/07/14 06:15:55;;;;;;;25.52;5.90;;;18.80;53.60;;;;;;5010431;28;20411;-75
2022/07/14 06:18:20;;;;;;;26.50;6.07;;;18.80;53.70;;;;;;5010637;28;20417;-77
2022/07/14 06:20:47;;;;;;;20.27;5.77;;;18.80;53.90;;;;;;5001839;28;20427;-77
2022/07/14 06:23:14;;;;;;;21.52;6.30;;;18.80;53.10;;;;;;4997160;28;20407;-75
2022/07/14 06:25:40;;;;;;;23.98;5.78;;;18.80;51.70;;;;;;4994302;28;20530;-76
2022/07/14 06:28:06;;;;;;;21.85;5.95;;;18.90;52.10;;;;;;5014048;28;20940;-77
2022/07/14 06:30:33;;;;;;;24.38;6.22;;;18.80;52.20;;;;;;5033792;28;20471;-75
2022/07/14 06:32:58;;;;;;;24.70;6.20;;;18.80;52.60;;;;;;5025199;28;20407;-76
2022/07/14 06:35:24;;;;;;;23.37;7.20;;;18.90;51.90;;;;;;5032478;28;20411;-76
2022/07/14 06:37:54;;;;;;;23.58;5.93;;;19.00;51.80;;;;;;5033563;28;20445;-75
2022/07/14 06:40:20;;;;;;;21.40;5.50;;;19.30;48.90;;;;;;5033816;28;20375;-75
2022/07/14 06:42:46;;;;;;;24.08;5.85;;;19.60;46.80;;;;;;5033260;28;20470;-76
2022/07/14 06:45:12;;;;;;;21.17;5.83;;;19.60;43.60;;;;;;5033604;28;20481;-76
2022/07/14 06:47:38;;;;;;;20.67;5.67;;;19.70;43.60;;;;;;5033332;28;20464;-76
2022/07/14 06:50:05;;;;;;;21.07;5.50;;;19.60;43.80;;;;;;5020545;28;20415;-74
2022/07/14 06:52:31;;;;;;;23.95;5.13;;;19.50;45.20;;;;;;5032561;28;20888;-78
2022/07/14 06:55:01;;;;;;;26.48;5.47;;;19.70;44.10;;;;;;5033196;28;20887;-75
2022/07/14 06:57:27;;;;;;;23.13;4.95;;;19.80;43.30;;;;;;5033364;28;20383;-76
2022/07/14 06:59:53;;;;;;;18.00;5.13;;;19.90;42.60;;;;;;5033546;28;20861;-76
2022/07/14 07:02:19;;;;;;;20.67;5.60;;;20.30;41.50;;;;;;5033131;28;20468;-78
2022/07/14 07:04:47;;;;;;;21.60;5.10;;;20.60;38.70;;;;;;5033647;28;20387;-75
2022/07/14 07:07:12;;;;;;;20.98;5.15;;;20.80;38.00;;;;;;5021287;28;20397;-76
2022/07/14 07:09:38;;;;;;;16.67;5.00;;;20.80;36.70;;;;;;5013634;28;20727;-77
2022/07/14 07:12:04;;;;;;;19.80;5.27;;;20.70;36.40;;;;;;5013632;28;20415;-76
2022/07/14 07:14:30;;;;;;;23.83;5.53;;;20.20;38.40;;;;;;5001715;28;20415;-77
2022/07/14 07:16:56;;;;;;;21.80;4.97;;;20.20;39.20;;;;;;5032733;28;20389;-76
2022/07/14 07:19:22;;;;;;;21.77;4.88;;;20.30;38.80;;;;;;4996941;28;20393;-75
2022/07/14 07:21:48;;;;;;;18.93;5.27;;;20.60;38.90;;;;;;5012879;28;20385;-76
2022/07/14 07:24:13;;;;;;;22.75;6.05;;;21.00;36.10;;;;;;5032807;28;20387;-77
2022/07/14 07:26:41;;;;;;;22.48;5.43;;;21.30;34.50;;;;;;5006887;28;20727;-71
2022/07/14 07:29:07;;;;;;;20.80;5.45;;;21.10;34.90;;;;;;5013019;28;20389;-74
2022/07/14 07:31:33;;;;;;;23.50;5.80;;;21.10;34.40;;;;;;5013134;28;20750;-72
2022/07/14 07:34:00;;;;;;;24.02;5.85;;;21.10;34.40;;;;;;5018975;28;20391;-72
2022/07/14 07:36:25;;;;;;;17.35;4.88;;;21.30;33.50;;;;;;5024967;28;20497;-72
2022/07/14 07:38:51;;;;;;;22.20;5.60;;;21.60;34.30;;;;;;5021901;28;20458;-75
2022/07/14 07:41:17;;;;;;;22.98;7.95;;;22.00;33.20;;;;;;5012822;28;20468;-74
2022/07/14 07:43:43;;;;;;;24.80;5.50;;;22.50;29.90;;;;;;5059536;22;20436;-77
2022/07/14 07:46:08;;;;;;;21.13;6.40;;;22.60;28.50;;;;;;5061166;28;20401;-79
2022/07/14 07:48:35;;;;;;;23.35;4.70;;;22.40;29.10;;;;;;5065906;28;20399;-80
2022/07/14 07:51:01;;;;;;;17.50;4.70;;;21.70;29.10;;;;;;5054988;28;20488;-78
2022/07/14 07:53:27;;;;;;;15.32;3.92;;;21.20;31.80;;;;;;5040099;28;20398;-77
2022/07/14 07:55:53;;;;;;;17.48;4.70;;;20.80;30.50;;;;;;5039712;28;20411;-76
2022/07/14 07:58:20;;;;;;;15.50;4.82;;;20.70;32.90;;;;;;5042322;28;20446;-77
2022/07/14 08:00:47;;;;;;;21.30;5.07;;;20.90;32.90;;;;;;5056291;28;20441;-77
2022/07/14 08:03:13;;;;;;;20.70;5.53;;;21.20;31.60;;;;;;5056315;28;20427;-77
2022/07/14 08:05:40;;;;;;;13.70;4.47;;;21.40;29.80;;;;;;5053639;28;20482;-76
2022/07/14 08:08:07;;;;;;;17.35;4.85;;;21.60;29.40;;;;;;5051030;28;20396;-76
2022/07/14 08:10:33;;;;;;;17.50;4.90;;;21.80;29.30;;;;;;5056440;28;20408;-76
2022/07/14 08:12:58;;;;;;;13.55;4.20;;;21.80;27.70;;;;;;5051527;28;20431;-75
2022/07/14 08:15:24;;;;;;;14.27;4.20;;;21.80;26.60;;;;;;5053940;28;20455;-78
2022/07/14 08:17:50;;;;;;;18.25;4.07;;;21.60;25.20;;;;;;5055235;28;20385;-80
2022/07/14 08:20:15;;;;;;;11.57;3.40;;;21.60;23.10;;;;;;5054745;28;20742;-77
2022/07/14 08:22:41;;;;;;;15.05;3.90;;;21.30;21.70;;;;;;5055056;28;20388;-77
2022/07/14 08:25:08;;;;;;;10.95;3.70;;;21.10;23.90;;;;;;5054958;28;20389;-77
2022/07/14 08:27:34;;;;;;;18.03;4.20;;;21.20;22.70;;;;;;5052377;28;20552;-78
2022/07/14 08:30:00;;;;;;;13.85;3.80;;;21.30;24.90;;;;;;5053948;28;20392;-75
2022/07/14 08:32:46;;;;;;;11.77;3.60;;;21.40;24.60;;;;;;5033339;28;20414;-75
2022/07/14 08:35:14;;;;;;;11.23;3.00;;;21.70;19.90;;;;;;5034427;28;20926;-77
2022/07/14 08:37:40;;;;;;;8.57;2.80;;;21.90;17.80;;;;;;5035071;28;20446;-77
2022/07/14 08:40:09;;;;;;;11.73;3.65;;;22.00;18.80;;;;;;5035039;28;20426;-77
2022/07/14 08:42:36;;;;;;;10.75;3.42;;;22.00;18.40;;;;;;5034800;28;20387;-77
2022/07/14 08:45:10;;;;;;;10.23;3.20;;;21.60;18.10;;;;;;5054612;28;20433;-77
2022/07/14 08:47:40;;;;;;;11.02;3.20;;;21.50;18.70;;;;;;5045003;28;20389;-77
2022/07/14 08:50:09;;;;;;;13.68;3.40;;;21.30;20.50;;;;;;5056026;28;20410;-77
2022/07/14 08:52:36;;;;;;;7.13;2.70;;;21.30;20.00;;;;;;5042412;28;20387;-77
2022/07/14 08:55:03;;;;;;;16.15;3.60;;;21.00;21.60;;;;;;5057801;28;20414;-75
2022/07/14 08:57:29;;;;;;;20.00;3.40;;;20.90;23.40;;;;;;5065013;28;20415;-76
2022/07/14 08:59:55;;;;;;;15.65;3.70;;;21.30;22.40;;;;;;5038305;28;20462;-77
2022/07/14 09:02:22;;;;;;;15.57;4.00;;;21.50;20.20;;;;;;5047535;28;20385;-76
2022/07/14 09:04:47;;;;;;;17.95;4.10;;;21.70;21.60;;;;;;5054475;28;20423;-76
2022/07/14 09:07:31;;;;;;;12.00;4.00;;;21.70;22.00;;;;;;5046056;28;20983;-76
2022/07/14 09:10:05;;;;;;;18.45;3.95;;;21.50;22.20;;;;;;5031857;28;20482;-76
2022/07/14 09:12:31;;;;;;;13.40;3.90;;;21.50;21.80;;;;;;5030933;28;20884;-76
2022/07/14 09:17:49;;;;;;;11.90;3.30;;;21.90;20.10;;;;;;5056790;28;20397;-78
2022/07/14 09:20:15;;;;;;;12.90;2.70;;;21.80;20.00;;;;;;5051234;28;20394;-77
2022/07/14 09:22:42;;;;;;;15.68;3.90;;;21.90;19.90;;;;;;5050899;28;20442;-75
2022/07/14 09:25:15;;;;;;;14.70;3.20;;;22.10;19.70;;;;;;5049790;28;20523;-76
2022/07/14 09:27:41;;;;;;;11.63;2.70;;;22.20;19.00;;;;;;5048967;28;20382;-76
2022/07/14 09:30:10;;;;;;;8.18;2.40;;;22.60;17.40;;;;;;5048391;28;20486;-75
2022/07/14 09:32:56;;;;;;;9.15;2.10;;;22.70;13.00;;;;;;5036220;28;20446;-75
2022/07/14 09:35:37;;;;;;;7.53;2.40;;;22.60;10.90;;;;;;5029544;28;20419;-75
2022/07/14 09:38:29;;;;;;;9.10;2.30;;;22.60;12.30;;;;;;5040486;28;20392;-74
2022/07/14 09:41:08;;;;;;;9.75;2.70;;;22.60;11.50;;;;;;5043932;28;20391;-75
2022/07/14 09:43:33;;;;;;;8.40;2.85;;;22.60;12.00;;;;;;5045590;28;20397;-75
2022/07/14 09:45:59;;;;;;;9.80;3.10;;;22.80;13.00;;;;;;5059008;28;20396;-75
2022/07/14 09:48:25;;;;;;;10.17;2.57;;;23.30;11.70;;;;;;5056508;28;20431;-75
2022/07/14 09:50:56;;;;;;;5.50;2.10;;;23.50;10.60;;;;;;5056722;28;20576;-76
2022/07/14 09:53:32;;;;;;;7.78;2.60;;;23.20;8.20;;;;;;5050525;28;20419;-76
2022/07/14 09:55:59;;;;;;;12.00;2.45;;;23.00;10.20;;;;;;5050892;28;20493;-76
2022/07/14 09:58:31;;;;;;;12.17;2.97;;;22.80;11.30;;;;;;5056437;28;20393;-76
2022/07/14 10:01:03;;;;;;;8.50;2.60;;;22.40;11.50;;;;;;5036865;28;20490;-76
2022/07/14 10:03:31;;;;;;;9.43;2.28;;;22.10;12.30;;;;;;5042825;28;20459;-76
2022/07/14 10:05:59;;;;;;;8.93;2.70;;;22.10;13.10;;;;;;5055498;28;20431;-76
2022/07/14 10:08:28;;;;;;;13.30;3.00;;;22.20;12.10;;;;;;5055132;28;20413;-76
2022/07/14 10:10:55;;;;;;;10.60;2.63;;;22.20;11.90;;;;;;5052977;28;20394;-76
2022/07/14 10:13:21;;;;;;;10.27;2.55;;;21.90;11.90;;;;;;5053389;28;20400;-75
2022/07/14 10:15:54;;;;;;;10.77;2.50;;;21.90;12.20;;;;;;5055849;28;20889;-77
2022/07/14 10:18:22;;;;;;;12.80;2.30;;;22.00;11.70;;;;;;5053556;28;20389;-76
2022/07/14 10:20:53;;;;;;;12.63;3.10;;;22.20;10.70;;;;;;5055333;28;20953;-76
2022/07/14 10:23:20;;;;;;;8.77;2.50;;;22.20;11.40;;;;;;5053461;28;20385;-76
2022/07/14 10:25:48;;;;;;;10.07;2.85;;;22.20;12.10;;;;;;5053313;28;20420;-76
2022/07/14 10:28:15;;;;;;;8.35;2.70;;;22.40;12.50;;;;;;5068297;28;20405;-76
2022/07/14 10:30:46;;;;;;;10.55;3.05;;;22.60;12.40;;;;;;5072358;28;20373;-75
2022/07/14 10:33:23;;;;;;;10.63;2.75;;;22.60;12.30;;;;;;5067361;28;20393;-76
2022/07/14 10:36:17;;;;;;;9.73;3.00;;;22.80;11.80;;;;;;5041651;28;20414;-76
2022/07/14 10:39:04;;;;;;;13.20;3.30;;;22.80;12.20;;;;;;5035649;28;20389;-76
2022/07/14 10:41:45;;;;;;;8.00;2.78;;;22.80;12.20;;;;;;5035465;28;20480;-76
2022/07/14 10:44:20;;;;;;;13.37;2.93;;;22.90;11.00;;;;;;5034787;28;20395;-75
2022/07/14 10:46:48;;;;;;;11.63;2.80;;;22.90;12.30;;;;;;5048540;28;20408;-76
2022/07/14 10:49:15;;;;;;;9.47;2.50;;;22.90;10.90;;;;;;5054360;28;20385;-76
2022/07/14 10:51:47;;;;;;;13.07;2.40;;;22.80;10.10;;;;;;5052003;28;20394;-76
2022/07/14 10:54:24;;;;;;;8.07;2.90;;;22.80;9.50;;;;;;5052597;28;20405;-76
2022/07/14 10:57:14;;;;;;;9.98;2.40;;;22.90;10.40;;;;;;5054188;28;20488;-77
2022/07/14 10:59:41;;;;;;;5.65;2.20;;;22.90;9.70;;;;;;5049291;28;20406;-76
2022/07/14 11:02:13;;;;;;;10.70;3.05;;;23.00;10.00;;;;;;5048392;28;20398;-76
2022/07/14 11:05:00;;;;;;;10.30;2.92;;;23.20;10.10;;;;;;5052227;28;20378;-75
2022/07/14 11:07:51;;;;;;;12.50;2.60;;;23.30;9.70;;;;;;5046800;28;20467;-74
2022/07/14 11:10:19;;;;;;;37.15;3.83;;;23.40;9.80;;;;;;5034205;28;20748;-73
2022/07/14 11:13:03;;;;;;;8.50;2.30;;;23.40;9.10;;;;;;5031356;28;20391;-77
2022/07/14 11:15:54;;;;;;;6.60;1.95;;;23.40;7.70;;;;;;5039565;28;20417;-75
2022/07/14 11:18:21;;;;;;;9.93;2.80;;;23.30;6.50;;;;;;5044740;28;20387;-74
2022/07/14 11:21:05;;;;;;;5.55;2.00;;;23.20;7.10;;;;;;5032025;28;20375;-74
2022/07/14 11:23:34;;;;;;;7.43;2.17;;;23.20;7.50;;;;;;5031043;28;20383;-74
2022/07/14 11:26:07;;;;;;;9.10;2.10;;;23.20;7.50;;;;;;5032868;28;20415;-74
2022/07/14 11:28:40;;;;;;;6.85;2.38;;;23.20;7.00;;;;;;5032959;28;20811;-74
2022/07/14 11:31:09;;;;;;;13.20;2.70;;;23.40;6.60;;;;;;5032781;28;20418;-75
2022/07/14 11:33:36;;;;;;;11.35;2.55;;;23.50;7.80;;;;;;5032966;28;20414;-75
2022/07/14 11:36:18;;;;;;;8.00;2.90;;;23.60;8.70;;;;;;5032735;28;20411;-75
2022/07/14 11:38:44;;;;;;;5.93;1.97;;;23.80;9.10;;;;;;5031332;28;20384;-75
2022/07/14 11:41:13;;;;;;;3.70;1.93;;;23.70;8.50;;;;;;5031302;28;20394;-75
2022/07/14 11:43:41;;;;;;;5.30;2.05;;;23.80;8.70;;;;;;5032467;28;20490;-74
2022/07/14 11:46:12;;;;;;;7.38;2.55;;;23.70;7.90;;;;;;5032765;28;20881;-74
2022/07/14 11:48:42;;;;;;;5.60;2.00;;;23.80;7.80;;;;;;5032350;28;20403;-73
2022/07/14 11:51:17;;;;;;;9.88;2.20;;;23.80;7.90;;;;;;5030837;28;20444;-75
2022/07/14 11:53:42;;;;;;;6.72;2.08;;;24.00;7.80;;;;;;5032149;28;20390;-73
2022/07/14 11:56:09;;;;;;;7.23;2.10;;;24.20;8.30;;;;;;5032307;28;20414;-74
2022/07/14 11:58:37;;;;;;;11.68;2.50;;;24.20;7.80;;;;;;5041041;28;20459;-74
2022/07/14 12:01:03;;;;;;;10.45;2.25;;;24.40;7.20;;;;;;5038755;28;20466;-73
2022/07/14 12:03:30;;;;;;;6.30;2.50;;;24.20;7.00;;;;;;5038454;28;20427;-73
2022/07/14 12:05:57;;;;;;;7.30;1.90;;;24.30;7.50;;;;;;5033226;28;20397;-75
2022/07/14 12:08:24;;;;;;;11.93;2.60;;;24.40;7.60;;;;;;5031258;28;20883;-76
2022/07/14 12:10:51;;;;;;;6.75;2.20;;;24.70;7.80;;;;;;5030786;28;20517;-73
2022/07/14 12:13:18;;;;;;;6.05;2.40;;;25.00;6.00;;;;;;5032295;28;20390;-76
2022/07/14 12:15:44;;;;;;;10.10;2.90;;;25.10;6.00;;;;;;5032194;28;20417;-75
2022/07/14 12:18:11;;;;;;;8.63;2.53;;;25.00;6.20;;;;;;5032005;28;20417;-75
2022/07/14 12:20:55;;;;;;;5.28;1.90;;;25.00;5.20;;;;;;5033410;28;20701;-75
2022/07/14 12:23:21;;;;;;;8.20;2.28;;;24.70;5.30;;;;;;5031651;28;20383;-75
2022/07/14 12:25:48;;;;;;;6.40;2.33;;;25.00;5.20;;;;;;5031265;28;20454;-74
2022/07/14 12:28:18;;;;;;;4.60;2.10;;;24.80;4.50;;;;;;5031601;28;20411;-74
2022/07/14 12:30:44;;;;;;;10.60;2.70;;;24.70;5.70;;;;;;5031437;28;20452;-75
2022/07/14 12:33:11;;;;;;;4.70;2.10;;;25.00;5.20;;;;;;5031631;28;20383;-74
2022/07/14 12:35:37;;;;;;;3.53;1.90;;;25.10;5.00;;;;;;5031670;28;20427;-73
2022/07/14 12:38:03;;;;;;;7.38;2.50;;;25.40;3.90;;;;;;5031756;28;20410;-74
2022/07/14 12:40:32;;;;;;;8.20;2.40;;;25.40;4.30;;;;;;5031433;28;20388;-75
2022/07/14 12:42:58;;;;;;;4.05;1.80;;;26.00;3.60;;;;;;5031086;28;20421;-74
2022/07/14 12:45:24;;;;;;;5.40;1.67;;;25.90;2.90;;;;;;5029884;28;20434;-75
2022/07/14 12:47:50;;;;;;;10.23;2.28;;;26.00;3.50;;;;;;5030153;28;20391;-75
2022/07/14 12:50:21;;;;;;;4.80;2.03;;;25.60;3.50;;;;;;5031455;28;20879;-75